createdAt,value
2023-02-12T00:00:58.117Z,7.00
2023-02-12T00:03:26.056Z,7.00
2023-02-12T00:05:54.211Z,6.90
2023-02-12T00:08:22.289Z,7.00
2023-02-12T00:10:50.216Z,6.90
2023-02-12T00:13:18.084Z,6.90
2023-02-12T00:15:46.759Z,6.90
2023-02-12T00:18:16.070Z,6.90
2023-02-12T00:20:43.949Z,6.90
2023-02-12T00:23:12.355Z,6.80
2023-02-12T00:25:42.652Z,6.80
2023-02-12T00:28:10.593Z,6.80
2023-02-12T00:30:38.644Z,6.80
2023-02-12T00:33:06.659Z,6.70
2023-02-12T00:35:35.926Z,6.70
2023-02-12T00:38:03.910Z,6.70
2023-02-12T00:40:33.021Z,6.70
2023-02-12T00:43:00.877Z,6.70
2023-02-12T00:45:28.752Z,6.70
2023-02-12T00:47:56.678Z,6.70
2023-02-12T00:50:24.524Z,6.70
2023-02-12T00:52:53.829Z,6.70
2023-02-12T00:55:21.882Z,6.70
2023-02-12T00:57:49.803Z,6.70
2023-02-12T01:00:18.176Z,6.70
2023-02-12T01:02:46.097Z,6.80
2023-02-12T01:05:15.367Z,6.80
2023-02-12T01:07:43.373Z,6.80
2023-02-12T01:10:12.837Z,6.80
2023-02-12T01:12:40.751Z,6.80
2023-02-12T01:15:10.359Z,6.80
2023-02-12T01:17:38.402Z,6.80
2023-02-12T01:20:08.216Z,6.70
2023-02-12T01:22:37.083Z,6.70
2023-02-12T01:25:05.558Z,6.70
2023-02-12T01:27:34.997Z,6.70
2023-02-12T01:30:02.865Z,6.70
2023-02-12T01:32:30.869Z,6.70
2023-02-12T01:34:58.777Z,6.70
2023-02-12T01:37:26.699Z,6.70
2023-02-12T01:39:54.573Z,6.70
2023-02-12T01:42:22.604Z,6.70
2023-02-12T01:45:23.866Z,6.70
2023-02-12T01:47:53.768Z,6.70
2023-02-12T01:50:22.179Z,6.70
2023-02-12T01:52:54.907Z,6.60
2023-02-12T01:55:23.449Z,6.60
2023-02-12T01:57:51.835Z,6.60
2023-02-12T02:00:21.406Z,6.60
2023-02-12T02:02:53.686Z,6.70
2023-02-12T02:05:28.961Z,6.70
2023-02-12T02:07:57.254Z,6.60
2023-02-12T02:10:25.151Z,6.60
2023-02-12T02:13:10.794Z,6.60
2023-02-12T02:15:40.215Z,6.60
2023-02-12T02:18:15.565Z,6.60
2023-02-12T02:21:02.003Z,6.60
2023-02-12T02:23:52.034Z,6.60
2023-02-12T02:26:40.951Z,6.50
2023-02-12T02:29:43.161Z,6.50
2023-02-12T02:32:16.234Z,6.60
2023-02-12T02:34:51.350Z,6.60
2023-02-12T02:37:24.736Z,6.60
2023-02-12T02:39:56.302Z,6.50
2023-02-12T02:42:30.046Z,6.50
2023-02-12T02:45:03.316Z,6.50
2023-02-12T02:47:38.895Z,6.40
2023-02-12T02:50:11.732Z,6.40
2023-02-12T02:52:44.276Z,6.40
2023-02-12T02:55:15.636Z,6.40
2023-02-12T02:57:48.764Z,6.50
2023-02-12T03:00:22.186Z,6.50
2023-02-12T03:02:54.403Z,6.50
2023-02-12T03:05:28.338Z,6.50
2023-02-12T03:08:01.078Z,6.50
2023-02-12T03:10:32.683Z,6.50
2023-02-12T03:13:05.011Z,6.50
2023-02-12T03:15:38.302Z,6.50
2023-02-12T03:18:13.742Z,6.50
2023-02-12T03:20:46.179Z,6.50
2023-02-12T03:23:18.117Z,6.50
2023-02-12T03:25:54.211Z,6.50
2023-02-12T03:28:26.723Z,6.50
2023-02-12T03:31:02.535Z,6.50
2023-02-12T03:33:42.541Z,6.50
2023-02-12T03:36:18.324Z,6.50
2023-02-12T03:38:49.355Z,6.40
2023-02-12T03:41:23.831Z,6.50
2023-02-12T03:43:56.463Z,6.50
2023-02-12T03:46:31.183Z,6.50
2023-02-12T03:49:05.826Z,6.40
2023-02-12T03:51:37.680Z,6.40
2023-02-12T03:54:06.942Z,6.40
2023-02-12T03:56:41.878Z,6.40
2023-02-12T03:59:09.935Z,6.40
2023-02-12T04:01:38.124Z,6.40
2023-02-12T04:04:09.729Z,6.50
2023-02-12T04:06:37.680Z,6.40
2023-02-12T04:09:10.035Z,6.50
2023-02-12T04:11:49.073Z,6.50
2023-02-12T04:14:25.789Z,6.50
2023-02-12T04:17:01.538Z,6.50
2023-02-12T04:19:50.651Z,6.50
2023-02-12T04:22:29.565Z,6.50
2023-02-12T04:25:11.385Z,6.50
2023-02-12T04:27:48.218Z,6.40
2023-02-12T04:30:22.436Z,6.40
2023-02-12T04:32:54.544Z,6.40
2023-02-12T04:35:26.995Z,6.40
2023-02-12T04:38:00.452Z,6.40
2023-02-12T04:40:28.896Z,6.30
2023-02-12T04:42:57.088Z,6.30
2023-02-12T04:45:27.754Z,6.30
2023-02-12T04:47:55.856Z,6.40
2023-02-12T04:50:25.592Z,6.30
2023-02-12T04:52:53.864Z,6.30
2023-02-12T04:55:21.707Z,6.30
2023-02-12T04:57:49.608Z,6.30
2023-02-12T05:00:18.432Z,6.40
2023-02-12T05:02:46.376Z,6.30
2023-02-12T05:05:14.340Z,6.30
2023-02-12T05:07:43.599Z,6.30
2023-02-12T05:10:12.033Z,6.30
2023-02-12T05:12:40.012Z,6.30
2023-02-12T05:15:08.345Z,6.20
2023-02-12T05:17:36.288Z,6.30
2023-02-12T05:20:04.803Z,6.30
2023-02-12T05:22:32.788Z,6.20
2023-02-12T05:25:01.963Z,6.20
2023-02-12T05:27:29.865Z,6.20
2023-02-12T05:29:57.881Z,6.20
2023-02-12T05:32:25.931Z,6.20
2023-02-12T05:34:53.730Z,6.20
2023-02-12T05:37:21.573Z,6.20
2023-02-12T05:39:50.401Z,6.20
2023-02-12T05:42:19.612Z,6.20
2023-02-12T05:44:47.462Z,6.20
2023-02-12T05:47:15.506Z,6.10
2023-02-12T05:49:43.889Z,6.10
2023-02-12T05:52:11.708Z,6.00
2023-02-12T05:54:39.548Z,6.10
2023-02-12T05:57:08.328Z,6.10
2023-02-12T05:59:37.535Z,6.10
2023-02-12T06:02:05.366Z,6.00
2023-02-12T06:04:33.196Z,6.00
2023-02-12T06:07:01.809Z,6.00
2023-02-12T06:09:29.787Z,6.00
2023-02-12T06:11:57.712Z,6.00
2023-02-12T06:14:25.725Z,6.00
2023-02-12T06:16:54.930Z,6.00
2023-02-12T06:19:24.306Z,6.00
2023-02-12T06:21:52.154Z,6.00
2023-02-12T06:24:20.129Z,6.10
2023-02-12T06:26:51.351Z,6.10
2023-02-12T06:29:19.299Z,6.10
2023-02-12T06:31:47.609Z,6.10
2023-02-12T06:34:18.044Z,6.10
2023-02-12T06:36:47.368Z,6.10
2023-02-12T06:39:16.740Z,6.10
2023-02-12T06:41:44.888Z,6.00
2023-02-12T06:44:13.901Z,6.00
2023-02-12T06:46:42.021Z,6.00
2023-02-12T06:49:12.773Z,6.00
2023-02-12T06:51:42.366Z,6.00
2023-02-12T06:54:14.228Z,6.00
2023-02-12T06:56:42.118Z,6.00
2023-02-12T06:59:15.680Z,6.00
2023-02-12T07:01:43.992Z,6.10
2023-02-12T07:04:12.620Z,6.10
2023-02-12T07:06:41.945Z,6.10
2023-02-12T07:09:09.839Z,6.10
2023-02-12T07:11:38.771Z,6.10
2023-02-12T07:14:07.249Z,6.10
2023-02-12T07:16:36.430Z,6.20
2023-02-12T07:19:04.486Z,6.20
2023-02-12T07:21:32.892Z,6.20
2023-02-12T07:24:02.078Z,6.20
2023-02-12T07:26:30.028Z,6.20
2023-02-12T07:28:59.406Z,6.30
2023-02-12T07:31:27.405Z,6.30
2023-02-12T07:33:56.775Z,6.30
2023-02-12T07:36:25.877Z,6.30
2023-02-12T07:38:54.609Z,6.30
2023-02-12T07:41:25.844Z,6.30
2023-02-12T07:43:56.649Z,6.30
2023-02-12T07:46:29.650Z,6.40
2023-02-12T07:48:58.796Z,6.40
2023-02-12T07:51:28.031Z,6.40
2023-02-12T07:53:56.198Z,6.50
2023-02-12T07:56:29.591Z,6.50
2023-02-12T07:58:58.022Z,6.50
2023-02-12T08:01:30.085Z,6.60
2023-02-12T08:06:54.685Z,6.60
2023-02-12T08:09:24.506Z,6.70
2023-02-12T08:11:54.437Z,6.70
2023-02-12T08:14:23.093Z,6.70
2023-02-12T08:16:51.809Z,6.70
2023-02-12T08:19:24.043Z,6.80
2023-02-12T08:21:54.701Z,6.80
2023-02-12T08:24:22.939Z,6.90
2023-02-12T08:26:51.657Z,7.00
2023-02-12T08:29:24.165Z,7.00
2023-02-12T08:31:57.109Z,7.00
2023-02-12T08:34:26.972Z,7.10
2023-02-12T08:36:55.750Z,7.20
2023-02-12T08:39:24.521Z,7.20
2023-02-12T08:41:54.778Z,7.30
2023-02-12T08:44:24.513Z,7.30
2023-02-12T08:46:55.730Z,7.30
2023-02-12T08:49:25.876Z,7.30
2023-02-12T08:51:56.205Z,7.40
2023-02-12T08:54:26.255Z,7.40
2023-02-12T08:56:56.617Z,7.50
2023-02-12T08:59:25.980Z,7.70
2023-02-12T09:01:54.463Z,7.80
2023-02-12T09:04:24.467Z,7.90
2023-02-12T09:06:53.080Z,8.00
2023-02-12T09:09:22.066Z,8.00
2023-02-12T09:11:50.127Z,8.10
2023-02-12T09:14:23.674Z,8.20
2023-02-12T09:16:53.856Z,8.30
2023-02-12T09:19:21.894Z,8.40
2023-02-12T09:21:55.218Z,8.50
2023-02-12T09:24:24.251Z,8.60
2023-02-12T09:26:52.132Z,8.80
2023-02-12T09:29:20.073Z,8.90
2023-02-12T09:31:48.185Z,9.00
2023-02-12T09:34:17.508Z,9.10
2023-02-12T09:36:45.496Z,9.20
2023-02-12T09:39:13.392Z,9.20
2023-02-12T09:42:10.566Z,9.20
2023-02-12T09:44:46.661Z,9.30
2023-02-12T09:47:21.656Z,9.40
2023-02-12T09:50:12.272Z,9.50
2023-02-12T09:52:40.498Z,9.60
2023-02-12T09:55:15.580Z,9.70
2023-02-12T09:57:54.482Z,9.80
2023-02-12T10:00:27.973Z,10.00
2023-02-12T10:02:56.516Z,10.20
2023-02-12T10:05:30.157Z,10.40
2023-02-12T10:08:14.952Z,10.40
2023-02-12T10:10:52.473Z,10.50
2023-02-12T10:13:37.446Z,10.50
2023-02-12T10:16:14.156Z,10.50
2023-02-12T10:18:59.641Z,10.40
2023-02-12T10:21:41.971Z,10.30
2023-02-12T10:24:28.364Z,10.20
2023-02-12T10:26:59.529Z,10.20
2023-02-12T10:29:31.187Z,10.20
2023-02-12T10:32:04.436Z,10.20
2023-02-12T10:34:35.088Z,10.20
2023-02-12T10:37:10.606Z,10.20
2023-02-12T10:39:43.909Z,10.20
2023-02-12T10:42:16.031Z,10.20
2023-02-12T10:44:44.021Z,10.20
2023-02-12T10:47:19.495Z,10.20
2023-02-12T10:49:57.524Z,10.20
2023-02-12T10:52:37.356Z,10.20
2023-02-12T10:55:23.979Z,10.10
2023-02-12T10:57:52.396Z,10.10
2023-02-12T11:00:26.701Z,10.10
2023-02-12T11:03:04.007Z,10.00
2023-02-12T11:05:35.804Z,10.00
2023-02-12T11:08:06.231Z,10.00
2023-02-12T11:10:39.402Z,10.00
2023-02-12T11:13:18.255Z,10.00
2023-02-12T11:15:49.330Z,10.00
2023-02-12T11:18:26.285Z,10.00
2023-02-12T11:20:56.951Z,10.10
2023-02-12T11:23:29.334Z,10.10
2023-02-12T11:26:00.113Z,10.10
2023-02-12T11:28:28.642Z,10.10
2023-02-12T11:31:01.702Z,10.10
2023-02-12T11:33:37.666Z,10.20
2023-02-12T11:36:14.616Z,10.20
2023-02-12T11:38:54.455Z,10.30
2023-02-12T11:41:28.508Z,10.40
2023-02-12T11:43:57.012Z,10.50
2023-02-12T11:46:27.784Z,10.60
2023-02-12T11:49:04.338Z,10.60
2023-02-12T11:51:33.368Z,10.60
2023-02-12T11:54:06.236Z,10.60
2023-02-12T11:56:46.654Z,10.60
2023-02-12T11:59:30.644Z,10.60
2023-02-12T12:02:01.285Z,10.70
2023-02-12T12:04:32.534Z,10.70
2023-02-12T12:07:06.454Z,10.70
2023-02-12T12:09:40.632Z,10.70
2023-02-12T12:12:14.543Z,10.60
2023-02-12T12:15:06.789Z,10.60
2023-02-12T12:17:59.855Z,10.80
2023-02-12T12:20:32.982Z,10.90
2023-02-12T12:23:06.094Z,11.20
2023-02-12T12:25:41.756Z,11.40
2023-02-12T12:28:29.950Z,11.50
2023-02-12T12:31:11.187Z,11.50
2023-02-12T12:33:43.654Z,11.70
2023-02-12T12:36:43.848Z,12.30
2023-02-12T12:39:35.815Z,12.90
2023-02-12T12:42:42.280Z,13.10
2023-02-12T12:45:26.211Z,13.00
2023-02-12T12:48:09.062Z,12.90
2023-02-12T12:50:52.885Z,13.00
2023-02-12T12:53:38.652Z,12.90
2023-02-12T12:56:30.715Z,12.90
2023-02-12T12:59:35.619Z,12.70
2023-02-12T13:02:39.080Z,12.50
2023-02-12T13:05:25.914Z,12.40
2023-02-12T13:08:04.300Z,12.30
2023-02-12T13:10:37.886Z,12.20
2023-02-12T13:13:18.052Z,12.20
2023-02-12T13:15:55.247Z,12.30
2023-02-12T13:18:34.159Z,12.30
2023-02-12T13:21:07.146Z,12.30
2023-02-12T13:23:42.711Z,12.50
2023-02-12T13:26:18.380Z,12.80
2023-02-12T13:28:50.773Z,13.00
2023-02-12T13:31:33.342Z,13.10
2023-02-12T13:34:05.483Z,13.00
2023-02-12T13:36:37.055Z,12.90
2023-02-12T13:39:11.819Z,12.90
2023-02-12T13:41:41.507Z,13.10
2023-02-12T13:44:21.303Z,13.30
2023-02-12T13:47:00.532Z,13.60
2023-02-12T13:49:40.308Z,13.80
2023-02-12T13:52:13.388Z,14.00
2023-02-12T13:54:54.130Z,14.10
2023-02-12T13:57:22.647Z,14.20
2023-02-12T13:59:53.651Z,14.30
2023-02-12T14:02:49.492Z,14.40
2023-02-12T14:05:24.041Z,14.50
2023-02-12T14:07:54.128Z,14.50
2023-02-12T14:10:25.322Z,14.60
2023-02-12T14:12:56.604Z,14.60
2023-02-12T14:15:36.936Z,14.60
2023-02-12T14:18:28.355Z,14.60
2023-02-12T14:21:42.980Z,14.60
2023-02-12T14:24:47.530Z,14.50
2023-02-12T14:27:30.902Z,14.40
2023-02-12T14:30:17.868Z,14.30
2023-02-12T14:33:20.281Z,14.20
2023-02-12T14:36:10.551Z,14.10
2023-02-12T14:39:06.679Z,14.00
2023-02-12T14:41:43.431Z,13.90
2023-02-12T14:44:48.884Z,13.80
2023-02-12T14:47:56.026Z,13.60
2023-02-12T14:50:29.952Z,13.50
2023-02-12T14:53:07.238Z,13.40
2023-02-12T14:55:36.722Z,13.20
2023-02-12T14:58:08.075Z,13.10
2023-02-12T15:00:39.075Z,13.00
2023-02-12T15:03:19.740Z,12.90
2023-02-12T15:05:54.442Z,12.80
2023-02-12T15:08:32.130Z,12.70
2023-02-12T15:11:10.358Z,12.60
2023-02-12T15:13:48.684Z,12.50
2023-02-12T15:16:25.088Z,12.40
2023-02-12T15:18:57.772Z,12.20
2023-02-12T15:21:27.673Z,12.00
2023-02-12T15:24:11.446Z,11.90
2023-02-12T15:26:47.793Z,11.80
2023-02-12T15:29:23.205Z,11.70
2023-02-12T15:31:56.771Z,11.50
2023-02-12T15:34:27.470Z,11.40
2023-02-12T15:37:01.140Z,11.30
2023-02-12T15:39:44.509Z,11.30
2023-02-12T15:42:29.991Z,11.20
2023-02-12T15:45:20.150Z,11.10
2023-02-12T15:48:00.240Z,11.00
2023-02-12T15:50:28.848Z,10.90
2023-02-12T15:52:57.550Z,10.80
2023-02-12T15:55:30.447Z,10.70
2023-02-12T15:58:00.293Z,10.70
2023-02-12T16:00:33.023Z,10.60
2023-02-12T16:03:00.956Z,10.50
2023-02-12T16:05:29.154Z,10.40
2023-02-12T16:07:57.301Z,10.30
2023-02-12T16:10:27.207Z,10.30
2023-02-12T16:12:55.900Z,10.20
2023-02-12T16:15:27.054Z,10.20
2023-02-12T16:17:56.464Z,10.10
2023-02-12T16:20:27.605Z,10.10
2023-02-12T16:22:56.636Z,10.10
2023-02-12T16:25:28.552Z,10.00
2023-02-12T16:28:02.961Z,9.90
2023-02-12T16:30:33.609Z,9.90
2023-02-12T16:33:02.799Z,9.80
2023-02-12T16:35:33.074Z,9.80
2023-02-12T16:38:04.377Z,9.80
2023-02-12T16:40:36.536Z,9.60
2023-02-12T16:43:23.412Z,9.60
2023-02-12T16:45:51.880Z,9.50
2023-02-12T16:48:25.106Z,9.30
2023-02-12T16:50:58.030Z,9.30
2023-02-12T16:53:43.637Z,9.20
2023-02-12T16:56:18.181Z,9.10
2023-02-12T16:58:48.381Z,9.00
2023-02-12T17:01:19.682Z,8.90
2023-02-12T17:03:50.464Z,8.80
2023-02-12T17:06:20.275Z,8.80
2023-02-12T17:08:48.273Z,8.70
2023-02-12T17:11:18.009Z,8.60
2023-02-12T17:13:46.892Z,8.50
2023-02-12T17:16:29.410Z,8.40
2023-02-12T17:18:58.493Z,8.30
2023-02-12T17:21:28.235Z,8.20
2023-02-12T17:23:56.319Z,8.20
2023-02-12T17:26:26.503Z,8.10
2023-02-12T17:28:54.385Z,8.10
2023-02-12T17:31:23.901Z,8.00
2023-02-12T17:33:52.074Z,7.90
2023-02-12T17:36:19.993Z,7.80
2023-02-12T17:38:47.874Z,7.70
2023-02-12T17:41:15.833Z,7.60
2023-02-12T17:43:46.270Z,7.50
2023-02-12T17:46:22.535Z,7.40
2023-02-12T17:48:50.425Z,7.30
2023-02-12T17:51:18.597Z,7.30
2023-02-12T17:53:46.838Z,7.30
2023-02-12T17:56:16.393Z,7.20
2023-02-12T17:58:49.803Z,7.20
2023-02-12T18:01:20.132Z,7.20
2023-02-12T18:03:48.193Z,7.10
2023-02-12T18:06:23.604Z,7.10
2023-02-12T18:08:51.804Z,7.10
2023-02-12T18:11:20.022Z,7.10
2023-02-12T18:13:49.473Z,7.00
2023-02-12T18:16:17.398Z,7.00
2023-02-12T18:18:45.312Z,6.90
2023-02-12T18:21:15.835Z,6.90
2023-02-12T18:23:44.653Z,6.80
2023-02-12T18:26:14.323Z,6.80
2023-02-12T18:28:42.754Z,6.70
2023-02-12T18:31:12.902Z,6.70
2023-02-12T18:33:40.928Z,6.60
2023-02-12T18:36:11.616Z,6.60
2023-02-12T18:38:41.076Z,6.60
2023-02-12T18:41:09.901Z,6.50
2023-02-12T18:43:38.189Z,6.40
2023-02-12T18:46:10.028Z,6.30
2023-02-12T18:48:39.646Z,6.30
2023-02-12T18:51:09.464Z,6.30
2023-02-12T18:53:37.635Z,6.20
2023-02-12T18:56:06.748Z,6.20
2023-02-12T18:58:35.201Z,6.10
2023-02-12T19:01:03.189Z,6.10
2023-02-12T19:03:31.139Z,6.10
2023-02-12T19:06:06.170Z,6.10
2023-02-12T19:08:34.084Z,6.10
2023-02-12T19:11:02.064Z,6.10
2023-02-12T19:13:29.896Z,6.10
2023-02-12T19:15:58.040Z,6.10
2023-02-12T19:18:25.965Z,6.10
2023-02-12T19:20:53.873Z,6.00
2023-02-12T19:23:23.163Z,6.00
2023-02-12T19:25:50.999Z,6.00
2023-02-12T19:28:18.869Z,5.90
2023-02-12T19:30:46.751Z,5.90
2023-02-12T19:33:15.169Z,5.90
2023-02-12T19:35:43.164Z,5.80
2023-02-12T19:38:11.024Z,5.80
2023-02-12T19:40:40.254Z,5.70
2023-02-12T19:43:08.148Z,5.70
2023-02-12T19:45:36.097Z,5.70
2023-02-12T19:48:03.940Z,5.70
2023-02-12T19:50:33.239Z,5.70
2023-02-12T19:53:02.870Z,5.60
2023-02-12T19:55:30.785Z,5.70
2023-02-12T19:58:00.070Z,5.70
2023-02-12T20:00:27.938Z,5.60
2023-02-12T20:02:55.915Z,5.60
2023-02-12T20:05:23.770Z,5.60
2023-02-12T20:07:51.737Z,5.50
2023-02-12T20:10:19.784Z,5.50
2023-02-12T20:12:47.696Z,5.50
2023-02-12T20:15:17.099Z,5.50
2023-02-12T20:17:44.982Z,5.50
2023-02-12T20:20:14.227Z,5.50
2023-02-12T20:22:42.137Z,5.40
2023-02-12T20:25:10.119Z,5.40
2023-02-12T20:27:38.076Z,5.30
2023-02-12T20:30:07.299Z,5.30
2023-02-12T20:32:36.554Z,5.30
2023-02-12T20:35:04.465Z,5.30
2023-02-12T20:37:33.187Z,5.30
2023-02-12T20:40:01.030Z,5.20
2023-02-12T20:42:28.963Z,5.20
2023-02-12T20:44:56.812Z,5.10
2023-02-12T20:47:28.712Z,5.20
2023-02-12T20:49:58.708Z,5.10
2023-02-12T20:52:26.667Z,5.10
2023-02-12T20:54:54.525Z,5.10
2023-02-12T20:57:22.583Z,5.10
2023-02-12T20:59:50.841Z,5.10
2023-02-12T21:02:19.272Z,5.10
2023-02-12T21:04:47.205Z,5.00
2023-02-12T21:07:16.621Z,5.00
2023-02-12T21:09:44.595Z,5.00
2023-02-12T21:12:12.469Z,4.90
2023-02-12T21:14:40.492Z,4.90
2023-02-12T21:17:08.453Z,4.90
2023-02-12T21:19:36.941Z,4.90
2023-02-12T21:22:05.166Z,4.80
2023-02-12T21:24:34.627Z,4.80
2023-02-12T21:27:02.568Z,4.80
2023-02-12T21:29:33.439Z,4.80
2023-02-12T21:32:01.843Z,4.80
2023-02-12T21:34:29.861Z,4.70
2023-02-12T21:36:58.242Z,4.70
2023-02-12T21:39:28.408Z,4.70
2023-02-12T21:42:00.039Z,4.60
2023-02-12T21:44:29.068Z,4.60
2023-02-12T21:46:57.700Z,4.60
2023-02-12T21:49:27.620Z,4.60
2023-02-12T21:51:58.070Z,4.60
2023-02-12T21:54:26.782Z,4.50
2023-02-12T21:56:54.803Z,4.50
2023-02-12T21:59:24.789Z,4.50
2023-02-12T22:01:56.224Z,4.50
2023-02-12T22:04:24.147Z,4.50
2023-02-12T22:06:54.061Z,4.40
2023-02-12T22:09:23.432Z,4.40
2023-02-12T22:11:52.873Z,4.30
2023-02-12T22:14:21.739Z,4.30
2023-02-12T22:16:51.787Z,4.20
2023-02-12T22:19:19.745Z,4.30
2023-02-12T22:21:51.319Z,4.20
2023-02-12T22:24:19.318Z,4.20
2023-02-12T22:26:47.272Z,4.20
2023-02-12T22:29:16.800Z,4.20
2023-02-12T22:31:46.376Z,4.20
2023-02-12T22:34:17.181Z,4.10
2023-02-12T22:36:45.591Z,4.10
2023-02-12T22:39:15.294Z,4.10
2023-02-12T22:41:43.491Z,4.00
2023-02-12T22:44:12.600Z,4.00
2023-02-12T22:46:40.670Z,4.00
2023-02-12T22:49:08.528Z,4.00
2023-02-12T22:51:39.514Z,3.90
2023-02-12T22:54:08.076Z,3.90
2023-02-12T22:56:36.086Z,3.90
2023-02-12T22:59:03.983Z,3.90
2023-02-12T23:01:32.060Z,3.90
2023-02-12T23:04:00.168Z,3.90
2023-02-12T23:06:30.307Z,3.90
2023-02-12T23:09:01.328Z,3.90
2023-02-12T23:11:31.234Z,3.80
2023-02-12T23:13:59.438Z,3.80
2023-02-12T23:16:27.485Z,3.80
2023-02-12T23:18:56.782Z,3.70
2023-02-12T23:21:25.894Z,3.70
2023-02-12T23:23:54.170Z,3.70
2023-02-12T23:26:24.168Z,3.70
2023-02-12T23:28:52.301Z,3.60
2023-02-12T23:31:20.324Z,3.60
2023-02-12T23:33:48.249Z,3.60
2023-02-12T23:36:16.382Z,3.50
2023-02-12T23:38:44.284Z,3.50
2023-02-12T23:41:12.181Z,3.50
2023-02-12T23:43:41.390Z,3.60
2023-02-12T23:46:09.661Z,3.60
2023-02-12T23:48:37.749Z,3.60
2023-02-12T23:51:06.069Z,3.60
2023-02-12T23:53:34.029Z,3.50
2023-02-12T23:56:01.954Z,3.50
2023-02-12T23:58:29.941Z,3.50
